createdAt,value
2022-12-15T00:02:18.866Z,-13.60
2022-12-15T00:05:04.319Z,-13.60
2022-12-15T00:07:49.701Z,-13.50
2022-12-15T00:10:35.287Z,-13.30
2022-12-15T00:13:20.632Z,-13.30
2022-12-15T00:16:07.098Z,-13.20
2022-12-15T00:18:52.989Z,-13.20
2022-12-15T00:21:38.488Z,-13.30
2022-12-15T00:24:24.468Z,-13.30
2022-12-15T00:27:09.843Z,-13.40
2022-12-15T00:29:55.574Z,-13.30
2022-12-15T00:32:41.657Z,-13.30
2022-12-15T00:35:27.563Z,-13.30
2022-12-15T00:38:13.070Z,-13.30
2022-12-15T00:40:40.008Z,-13.20
2022-12-15T00:43:07.115Z,-13.10
2022-12-15T00:46:12.560Z,-13.00
2022-12-15T00:48:40.084Z,-12.90
2022-12-15T00:51:06.850Z,-12.80
2022-12-15T00:53:52.383Z,-12.60
2022-12-15T00:56:38.249Z,-12.60
2022-12-15T00:59:24.545Z,-12.60
2022-12-15T01:02:10.171Z,-12.60
2022-12-15T01:04:55.343Z,-12.70
2022-12-15T01:07:41.382Z,-12.80
2022-12-15T01:10:27.025Z,-12.90
2022-12-15T01:13:12.911Z,-12.90
2022-12-15T01:15:59.292Z,-13.00
2022-12-15T01:18:49.563Z,-12.90
2022-12-15T01:21:16.822Z,-12.90
2022-12-15T01:23:43.608Z,-13.00
2022-12-15T01:26:10.723Z,-13.00
2022-12-15T01:28:37.779Z,-12.90
2022-12-15T01:31:11.743Z,-12.90
2022-12-15T01:33:40.074Z,-12.90
2022-12-15T01:36:07.319Z,-12.90
2022-12-15T01:38:34.335Z,-12.90
2022-12-15T01:41:04.254Z,-12.80
2022-12-15T01:43:34.946Z,-12.80
2022-12-15T01:46:03.592Z,-12.70
2022-12-15T01:48:42.393Z,-12.60
2022-12-15T01:51:23.966Z,-12.50
2022-12-15T01:54:21.923Z,-12.50
2022-12-15T01:56:59.752Z,-12.50
2022-12-15T01:59:36.183Z,-12.50
2022-12-15T02:02:03.967Z,-12.50
2022-12-15T02:04:31.847Z,-12.40
2022-12-15T02:06:59.255Z,-12.40
2022-12-15T02:09:27.679Z,-12.40
2022-12-15T02:12:14.767Z,-12.40
2022-12-15T02:14:53.831Z,-12.30
2022-12-15T02:17:35.322Z,-12.30
2022-12-15T02:20:38.723Z,-12.20
2022-12-15T02:23:43.590Z,-12.20
2022-12-15T02:26:49.230Z,-12.20
2022-12-15T02:29:25.369Z,-12.10
2022-12-15T02:32:13.543Z,-12.10
2022-12-15T02:34:56.832Z,-12.20
2022-12-15T02:37:31.996Z,-12.20
2022-12-15T02:39:59.095Z,-12.10
2022-12-15T02:42:29.047Z,-12.10
2022-12-15T02:44:57.516Z,-12.10
2022-12-15T02:47:30.466Z,-12.00
2022-12-15T02:50:23.089Z,-11.90
2022-12-15T02:53:17.941Z,-11.80
2022-12-15T02:56:14.117Z,-11.80
2022-12-15T02:58:47.697Z,-11.70
2022-12-15T03:01:37.468Z,-11.70
2022-12-15T03:04:08.008Z,-11.60
2022-12-15T03:06:35.200Z,-11.60
2022-12-15T03:09:02.392Z,-11.60
2022-12-15T03:11:29.408Z,-11.50
2022-12-15T03:13:57.526Z,-11.50
2022-12-15T03:16:24.533Z,-11.40
2022-12-15T03:18:52.447Z,-11.40
2022-12-15T03:21:19.349Z,-11.40
2022-12-15T03:23:46.192Z,-11.30
2022-12-15T03:26:13.013Z,-11.20
2022-12-15T03:28:44.419Z,-11.10
2022-12-15T03:31:12.360Z,-11.10
2022-12-15T03:33:39.428Z,-11.00
2022-12-15T03:36:06.802Z,-10.90
2022-12-15T03:38:33.673Z,-10.90
2022-12-15T03:41:00.577Z,-10.90
2022-12-15T03:43:27.524Z,-10.90
2022-12-15T03:45:54.524Z,-11.00
2022-12-15T03:48:21.523Z,-11.00
2022-12-15T03:50:50.023Z,-11.10
2022-12-15T03:53:17.001Z,-11.10
2022-12-15T03:55:43.977Z,-11.10
2022-12-15T03:58:10.765Z,-11.10
2022-12-15T04:00:37.843Z,-11.10
2022-12-15T04:03:04.903Z,-11.00
2022-12-15T04:05:34.012Z,-10.80
2022-12-15T04:08:01.789Z,-10.70
2022-12-15T04:10:34.320Z,-10.70
2022-12-15T04:13:08.535Z,-10.70
2022-12-15T04:15:37.063Z,-10.60
2022-12-15T04:18:06.724Z,-10.50
2022-12-15T04:20:34.081Z,-10.50
2022-12-15T04:23:01.244Z,-10.50
2022-12-15T04:25:48.278Z,-10.50
2022-12-15T04:28:33.683Z,-10.60
2022-12-15T04:31:27.686Z,-10.60
2022-12-15T04:34:17.346Z,-10.60
2022-12-15T04:37:06.579Z,-10.70
2022-12-15T04:39:54.068Z,-10.70
2022-12-15T04:42:39.834Z,-10.70
2022-12-15T04:45:26.574Z,-10.70
2022-12-15T04:48:11.823Z,-10.70
2022-12-15T04:50:57.062Z,-10.70
2022-12-15T04:53:42.347Z,-10.70
2022-12-15T04:56:33.496Z,-10.70
2022-12-15T04:59:19.439Z,-10.70
2022-12-15T05:02:05.690Z,-10.70
2022-12-15T05:04:51.843Z,-10.70
2022-12-15T05:07:37.394Z,-10.70
2022-12-15T05:10:24.061Z,-10.70
2022-12-15T05:13:09.680Z,-10.70
2022-12-15T05:15:54.988Z,-10.80
2022-12-15T05:18:40.515Z,-10.80
2022-12-15T05:21:25.893Z,-10.80
2022-12-15T05:24:11.394Z,-10.80
2022-12-15T05:26:56.981Z,-10.90
2022-12-15T05:29:42.265Z,-10.90
2022-12-15T05:32:09.138Z,-10.80
2022-12-15T05:34:37.623Z,-10.80
2022-12-15T05:37:07.530Z,-10.80
2022-12-15T05:39:34.881Z,-10.70
2022-12-15T05:42:01.831Z,-10.70
2022-12-15T05:44:29.399Z,-10.70
2022-12-15T05:46:56.208Z,-10.80
2022-12-15T05:49:26.044Z,-10.80
2022-12-15T05:51:52.915Z,-10.90
2022-12-15T05:54:20.187Z,-10.90
2022-12-15T05:56:50.431Z,-10.90
2022-12-15T05:59:17.714Z,-10.90
2022-12-15T06:01:46.130Z,-10.90
2022-12-15T06:04:13.808Z,-10.90
2022-12-15T06:06:41.677Z,-10.90
2022-12-15T06:09:10.006Z,-10.90
2022-12-15T06:11:37.621Z,-10.80
2022-12-15T06:14:04.810Z,-10.70
2022-12-15T06:16:31.905Z,-10.60
2022-12-15T06:19:01.476Z,-10.60
2022-12-15T06:21:31.370Z,-10.70
2022-12-15T06:23:58.540Z,-10.70
2022-12-15T06:26:29.350Z,-10.70
2022-12-15T06:28:58.178Z,-10.70
2022-12-15T06:31:26.040Z,-10.60
2022-12-15T06:34:01.048Z,-10.60
2022-12-15T06:36:30.756Z,-10.70
2022-12-15T06:39:06.101Z,-10.80
2022-12-15T06:41:33.541Z,-10.80
2022-12-15T06:44:01.429Z,-10.90
2022-12-15T06:46:30.048Z,-10.90
2022-12-15T06:48:57.570Z,-11.00
2022-12-15T06:51:24.827Z,-11.00
2022-12-15T06:53:55.528Z,-10.90
2022-12-15T06:56:32.733Z,-11.00
2022-12-15T06:59:01.903Z,-11.00
2022-12-15T07:01:29.609Z,-10.90
2022-12-15T07:03:57.502Z,-11.00
2022-12-15T07:06:24.582Z,-11.10
2022-12-15T07:08:53.954Z,-11.20
2022-12-15T07:11:22.633Z,-11.20
2022-12-15T07:13:53.736Z,-11.30
2022-12-15T07:16:21.945Z,-11.30
2022-12-15T07:18:49.184Z,-11.30
2022-12-15T07:21:17.168Z,-11.30
2022-12-15T07:24:00.890Z,-11.40
2022-12-15T07:26:28.242Z,-11.40
2022-12-15T07:28:56.316Z,-11.40
2022-12-15T07:31:23.828Z,-11.50
2022-12-15T07:33:52.761Z,-11.50
2022-12-15T07:36:19.968Z,-11.50
2022-12-15T07:38:50.771Z,-11.40
2022-12-15T07:41:19.934Z,-11.30
2022-12-15T07:43:47.757Z,-11.40
2022-12-15T07:46:15.199Z,-11.40
2022-12-15T07:48:42.286Z,-11.50
2022-12-15T07:51:15.583Z,-11.50
2022-12-15T07:53:46.274Z,-11.40
2022-12-15T07:56:13.382Z,-11.40
2022-12-15T07:58:40.391Z,-11.40
2022-12-15T08:01:10.293Z,-11.50
2022-12-15T08:03:39.152Z,-11.50
2022-12-15T08:06:07.905Z,-11.40
2022-12-15T08:08:35.732Z,-11.40
2022-12-15T08:11:07.070Z,-11.40
2022-12-15T08:16:22.286Z,-11.40
2022-12-15T08:18:49.355Z,-11.40
2022-12-15T08:21:17.253Z,-11.40
2022-12-15T08:23:44.124Z,-11.40
2022-12-15T08:26:14.471Z,-11.50
2022-12-15T08:28:42.475Z,-11.50
2022-12-15T08:31:17.699Z,-11.60
2022-12-15T08:33:45.956Z,-11.60
2022-12-15T08:36:14.534Z,-11.60
2022-12-15T08:38:43.026Z,-11.60
2022-12-15T08:41:12.919Z,-11.50
2022-12-15T08:43:48.254Z,-11.50
2022-12-15T08:46:18.196Z,-11.50
2022-12-15T08:48:45.444Z,-11.40
2022-12-15T08:51:12.505Z,-11.50
2022-12-15T08:53:39.780Z,-11.50
2022-12-15T08:56:09.068Z,-11.50
2022-12-15T08:58:36.639Z,-11.50
2022-12-15T09:01:04.611Z,-11.50
2022-12-15T09:03:31.857Z,-11.60
2022-12-15T09:06:06.218Z,-11.50
2022-12-15T09:08:35.507Z,-11.50
2022-12-15T09:11:03.328Z,-11.50
2022-12-15T09:13:31.275Z,-11.50
2022-12-15T09:16:09.771Z,-11.60
2022-12-15T09:18:37.064Z,-11.60
2022-12-15T09:21:05.928Z,-11.70
2022-12-15T09:23:33.784Z,-11.70
2022-12-15T09:26:06.028Z,-11.70
2022-12-15T09:28:33.378Z,-11.90
2022-12-15T09:31:09.005Z,-11.90
2022-12-15T09:33:36.682Z,-12.00
2022-12-15T09:36:04.506Z,-12.00
2022-12-15T09:38:33.449Z,-12.00
2022-12-15T09:41:09.072Z,-11.90
2022-12-15T09:43:46.640Z,-11.90
2022-12-15T09:46:23.742Z,-11.90
2022-12-15T09:48:52.924Z,-11.90
2022-12-15T09:51:23.459Z,-11.80
2022-12-15T09:53:55.146Z,-11.80
2022-12-15T09:56:32.812Z,-11.70
2022-12-15T09:59:17.738Z,-11.60
2022-12-15T10:01:52.728Z,-11.50
2022-12-15T10:04:57.899Z,-11.50
2022-12-15T10:07:34.689Z,-11.40
2022-12-15T10:10:23.766Z,-11.40
2022-12-15T10:15:50.286Z,-11.40
2022-12-15T10:18:28.601Z,-11.30
2022-12-15T10:21:02.152Z,-11.30
2022-12-15T10:23:29.644Z,-11.30
2022-12-15T10:26:15.712Z,-11.30
2022-12-15T10:28:51.551Z,-11.30
2022-12-15T10:32:07.487Z,-11.30
2022-12-15T10:34:38.252Z,-11.20
2022-12-15T10:37:05.967Z,-11.10
2022-12-15T10:39:39.318Z,-11.10
2022-12-15T10:42:23.135Z,-11.10
2022-12-15T10:45:00.593Z,-11.00
2022-12-15T10:47:31.342Z,-11.00
2022-12-15T10:50:37.031Z,-10.90
2022-12-15T10:53:09.633Z,-10.90
2022-12-15T10:55:40.318Z,-10.90
2022-12-15T10:58:22.076Z,-11.00
2022-12-15T11:01:05.427Z,-11.10
2022-12-15T11:03:36.951Z,-11.10
2022-12-15T11:06:14.515Z,-11.10
2022-12-15T11:10:25.270Z,-11.20
2022-12-15T11:13:20.911Z,-11.10
2022-12-15T11:15:56.501Z,-11.10
2022-12-15T11:18:55.809Z,-11.00
2022-12-15T11:21:34.938Z,-10.90
2022-12-15T11:24:28.570Z,-10.80
2022-12-15T11:27:31.877Z,-10.80
2022-12-15T11:30:11.840Z,-10.70
2022-12-15T11:32:48.887Z,-10.60
2022-12-15T11:35:38.898Z,-10.50
2022-12-15T11:38:11.748Z,-10.40
2022-12-15T11:40:43.532Z,-10.40
2022-12-15T11:43:24.015Z,-10.40
2022-12-15T11:46:00.293Z,-10.40
2022-12-15T11:48:43.531Z,-10.30
2022-12-15T11:51:37.019Z,-10.40
2022-12-15T11:54:40.562Z,-10.30
2022-12-15T11:57:48.235Z,-10.20
2022-12-15T12:00:23.250Z,-10.20
2022-12-15T12:03:22.688Z,-10.10
2022-12-15T12:06:09.135Z,-9.90
2022-12-15T12:08:44.761Z,-9.80
2022-12-15T12:11:21.813Z,-9.70
2022-12-15T12:14:27.362Z,-9.70
2022-12-15T12:17:00.888Z,-9.60
2022-12-15T12:19:33.170Z,-9.60
2022-12-15T12:22:23.377Z,-9.50
2022-12-15T12:25:11.036Z,-9.50
2022-12-15T12:27:45.156Z,-9.50
2022-12-15T12:30:29.543Z,-9.50
2022-12-15T12:33:25.586Z,-9.60
2022-12-15T12:36:10.438Z,-9.70
2022-12-15T12:38:51.051Z,-9.70
2022-12-15T12:41:46.965Z,-9.70
2022-12-15T12:44:33.942Z,-9.80
2022-12-15T12:47:24.251Z,-9.80
2022-12-15T12:49:56.515Z,-9.80
2022-12-15T12:52:36.577Z,-9.70
2022-12-15T12:55:21.121Z,-9.80
2022-12-15T12:57:48.071Z,-9.80
2022-12-15T13:00:20.358Z,-9.80
2022-12-15T13:02:52.387Z,-9.80
2022-12-15T13:05:27.607Z,-9.80
2022-12-15T13:08:26.898Z,-9.70
2022-12-15T13:10:55.722Z,-9.50
2022-12-15T13:13:32.263Z,-9.30
2022-12-15T13:16:22.937Z,-9.20
2022-12-15T13:19:04.968Z,-9.10
2022-12-15T13:21:44.361Z,-9.10
2022-12-15T13:24:46.237Z,-9.20
2022-12-15T13:27:19.292Z,-9.20
2022-12-15T13:29:56.875Z,-9.30
2022-12-15T13:32:33.341Z,-9.30
2022-12-15T13:35:26.601Z,-9.30
2022-12-15T13:37:59.337Z,-9.40
2022-12-15T13:40:35.349Z,-9.50
2022-12-15T13:43:05.458Z,-9.50
2022-12-15T13:45:53.661Z,-9.60
2022-12-15T13:48:44.904Z,-9.60
2022-12-15T13:51:19.894Z,-9.70
2022-12-15T13:53:56.310Z,-9.70
2022-12-15T13:56:38.810Z,-9.60
2022-12-15T13:59:35.116Z,-9.70
2022-12-15T14:02:02.104Z,-9.70
2022-12-15T14:04:28.983Z,-9.70
2022-12-15T14:07:00.260Z,-9.80
2022-12-15T14:09:34.241Z,-9.90
2022-12-15T14:12:05.957Z,-9.80
2022-12-15T14:14:37.046Z,-9.90
2022-12-15T14:17:08.620Z,-9.90
2022-12-15T14:19:44.502Z,-10.00
2022-12-15T14:22:29.403Z,-10.00
2022-12-15T14:25:02.932Z,-10.10
2022-12-15T14:27:32.472Z,-10.00
2022-12-15T14:30:13.702Z,-10.10
2022-12-15T14:32:42.178Z,-10.00
2022-12-15T14:35:22.250Z,-10.10
2022-12-15T14:37:49.723Z,-10.20
2022-12-15T14:40:18.111Z,-10.20
2022-12-15T14:42:46.365Z,-10.30
2022-12-15T14:45:25.878Z,-10.30
2022-12-15T14:48:39.579Z,-10.40
2022-12-15T14:50:52.792Z,-10.40
2022-12-15T14:53:21.809Z,-10.50
2022-12-15T14:55:48.918Z,-10.40
2022-12-15T14:58:33.394Z,-10.40
2022-12-15T15:01:02.067Z,-10.50
2022-12-15T15:03:10.457Z,-11.40
2022-12-15T15:03:37.048Z,-10.60
2022-12-15T15:06:15.705Z,-10.60
2022-12-15T15:08:47.362Z,-10.60
2022-12-15T15:11:23.436Z,-10.70
2022-12-15T15:13:56.104Z,-10.80
2022-12-15T15:16:23.334Z,-10.80
2022-12-15T15:18:55.974Z,-10.90
2022-12-15T15:21:26.024Z,-10.90
2022-12-15T15:24:09.314Z,-10.80
2022-12-15T15:26:36.439Z,-10.80
2022-12-15T15:29:03.778Z,-10.90
2022-12-15T15:31:41.572Z,-10.80
2022-12-15T15:34:09.392Z,-10.80
2022-12-15T15:36:39.782Z,-10.80
2022-12-15T15:39:15.569Z,-10.90
2022-12-15T15:41:42.810Z,-10.90
2022-12-15T15:44:15.454Z,-10.80
2022-12-15T15:46:48.876Z,-10.70
2022-12-15T15:49:19.190Z,-10.70
2022-12-15T15:51:46.369Z,-10.70
2022-12-15T15:54:23.693Z,-10.60
2022-12-15T15:56:50.516Z,-10.50
2022-12-15T15:59:24.935Z,-10.40
2022-12-15T16:01:56.033Z,-10.40
2022-12-15T16:04:24.127Z,-10.50
2022-12-15T16:06:52.618Z,-10.50
2022-12-15T16:09:19.576Z,-10.50
2022-12-15T16:11:46.972Z,-10.60
2022-12-15T16:14:16.681Z,-10.70
2022-12-15T16:16:44.631Z,-10.80
2022-12-15T16:19:14.456Z,-10.80
2022-12-15T16:21:42.984Z,-10.70
2022-12-15T16:24:15.613Z,-10.60
2022-12-15T16:26:47.984Z,-10.70
2022-12-15T16:29:16.747Z,-10.60
2022-12-15T16:31:45.673Z,-10.50
2022-12-15T16:34:13.666Z,-10.40
2022-12-15T16:36:41.051Z,-10.30
2022-12-15T16:39:24.912Z,-10.20
2022-12-15T16:41:53.975Z,-10.10
2022-12-15T16:44:21.214Z,-10.20
2022-12-15T16:46:48.312Z,-10.20
2022-12-15T16:49:15.216Z,-10.30
2022-12-15T16:51:48.908Z,-10.40
2022-12-15T16:54:20.890Z,-10.40
2022-12-15T16:56:48.231Z,-10.50
2022-12-15T16:59:34.348Z,-10.50
2022-12-15T17:02:03.070Z,-10.50
2022-12-15T17:04:30.179Z,-10.50
2022-12-15T17:06:57.024Z,-10.60
2022-12-15T17:09:25.495Z,-10.60
2022-12-15T17:11:52.916Z,-10.60
2022-12-15T17:14:19.915Z,-10.70
2022-12-15T17:16:46.878Z,-10.70
2022-12-15T17:19:19.207Z,-10.80
2022-12-15T17:21:51.757Z,-10.80
2022-12-15T17:24:20.531Z,-10.90
2022-12-15T17:26:47.880Z,-11.00
2022-12-15T17:29:19.080Z,-11.00
2022-12-15T17:31:46.043Z,-11.00
2022-12-15T17:34:22.176Z,-11.00
2022-12-15T17:36:49.173Z,-11.00
2022-12-15T17:39:18.221Z,-11.00
2022-12-15T17:42:02.094Z,-11.10
2022-12-15T17:44:36.384Z,-11.10
2022-12-15T17:47:06.168Z,-11.00
2022-12-15T17:49:36.432Z,-11.00
2022-12-15T17:52:07.526Z,-10.90
2022-12-15T17:54:34.594Z,-11.00
2022-12-15T17:57:01.651Z,-11.00
2022-12-15T17:59:28.483Z,-11.00
2022-12-15T18:01:57.345Z,-11.00
2022-12-15T18:04:24.607Z,-11.00
2022-12-15T18:06:56.634Z,-11.00
2022-12-15T18:09:28.226Z,-11.00
2022-12-15T18:11:55.119Z,-11.10
2022-12-15T18:14:22.990Z,-11.00
2022-12-15T18:16:50.323Z,-11.00
2022-12-15T18:19:17.231Z,-11.00
2022-12-15T18:21:44.373Z,-11.00
2022-12-15T18:24:17.578Z,-10.90
2022-12-15T18:26:45.225Z,-10.90
2022-12-15T18:29:17.957Z,-10.90
2022-12-15T18:31:46.926Z,-10.90
2022-12-15T18:34:18.015Z,-10.90
2022-12-15T18:36:45.021Z,-10.80
2022-12-15T18:39:32.185Z,-10.90
2022-12-15T18:41:59.070Z,-10.90
2022-12-15T18:44:28.736Z,-11.00
2022-12-15T18:46:55.783Z,-11.00
2022-12-15T18:49:23.406Z,-11.10
2022-12-15T18:51:50.675Z,-11.00
2022-12-15T18:54:23.480Z,-11.00
2022-12-15T18:56:51.730Z,-11.10
2022-12-15T18:59:19.505Z,-11.10
2022-12-15T19:01:48.184Z,-11.10
2022-12-15T19:04:15.883Z,-11.10
2022-12-15T19:06:43.067Z,-11.10
2022-12-15T19:09:19.916Z,-11.10
2022-12-15T19:12:06.998Z,-11.10
2022-12-15T19:14:43.120Z,-11.10
2022-12-15T19:17:38.791Z,-11.10
2022-12-15T19:20:36.687Z,-11.20
2022-12-15T19:23:05.247Z,-11.30
2022-12-15T19:25:32.932Z,-11.40
2022-12-15T19:28:01.128Z,-11.50
2022-12-15T19:30:41.771Z,-11.50
2022-12-15T19:33:10.646Z,-11.50
2022-12-15T19:35:39.229Z,-11.50
2022-12-15T19:38:06.832Z,-11.50
2022-12-15T19:40:35.696Z,-11.30
2022-12-15T19:43:04.263Z,-11.30
2022-12-15T19:45:32.564Z,-11.30
2022-12-15T19:48:00.116Z,-11.30
2022-12-15T19:50:37.142Z,-11.40
2022-12-15T19:53:12.379Z,-11.40
2022-12-15T19:55:39.707Z,-11.40
2022-12-15T19:58:28.688Z,-11.50
2022-12-15T20:01:02.105Z,-11.50
2022-12-15T20:03:30.375Z,-11.50
2022-12-15T20:05:58.956Z,-11.50
2022-12-15T20:08:28.654Z,-11.50
2022-12-15T20:10:56.425Z,-11.60
2022-12-15T20:13:23.518Z,-11.70
2022-12-15T20:15:50.357Z,-11.80
2022-12-15T20:18:17.191Z,-11.90
2022-12-15T20:20:45.879Z,-11.90
2022-12-15T20:23:19.477Z,-11.90
2022-12-15T20:25:47.323Z,-11.90
2022-12-15T20:28:17.743Z,-12.00
2022-12-15T20:30:45.603Z,-12.10
2022-12-15T20:33:13.015Z,-12.10
2022-12-15T20:35:41.197Z,-12.10
2022-12-15T20:38:31.803Z,-12.20
2022-12-15T20:41:00.602Z,-12.10
2022-12-15T20:43:31.820Z,-12.10
2022-12-15T20:46:12.671Z,-12.10
2022-12-15T20:48:39.595Z,-12.10
2022-12-15T20:51:09.795Z,-12.10
2022-12-15T20:53:38.274Z,-12.10
2022-12-15T20:56:06.183Z,-12.00
2022-12-15T20:58:40.540Z,-12.00
2022-12-15T21:01:26.327Z,-12.00
2022-12-15T21:03:58.176Z,-12.00
2022-12-15T21:06:25.971Z,-12.10
2022-12-15T21:08:52.893Z,-12.10
2022-12-15T21:11:26.592Z,-12.10
2022-12-15T21:13:56.666Z,-12.20
2022-12-15T21:16:26.268Z,-12.30
2022-12-15T21:21:45.475Z,-12.30
2022-12-15T21:24:22.981Z,-12.30
2022-12-15T21:26:51.358Z,-12.20
2022-12-15T21:29:21.997Z,-12.20
2022-12-15T21:31:49.655Z,-12.10
2022-12-15T21:34:17.054Z,-12.00
2022-12-15T21:36:47.451Z,-12.00
2022-12-15T21:39:23.406Z,-12.10
2022-12-15T21:41:50.559Z,-12.00
2022-12-15T21:44:18.873Z,-12.10
2022-12-15T21:46:45.829Z,-12.10
2022-12-15T21:49:14.865Z,-12.10
2022-12-15T21:52:00.117Z,-12.20
2022-12-15T21:54:31.812Z,-12.10
2022-12-15T21:57:05.386Z,-12.20
2022-12-15T21:59:33.304Z,-12.10
2022-12-15T22:02:00.938Z,-12.20
2022-12-15T22:04:34.533Z,-12.10
2022-12-15T22:07:03.446Z,-12.10
2022-12-15T22:09:30.267Z,-12.20
2022-12-15T22:11:57.327Z,-12.20
2022-12-15T22:14:33.730Z,-12.10
2022-12-15T22:17:06.067Z,-12.20
2022-12-15T22:19:33.053Z,-12.20
2022-12-15T22:21:59.912Z,-12.20
2022-12-15T22:24:26.781Z,-12.10
2022-12-15T22:26:53.714Z,-12.10
2022-12-15T22:29:23.322Z,-12.20
2022-12-15T22:31:50.764Z,-12.30
2022-12-15T22:34:23.807Z,-12.30
2022-12-15T22:36:51.083Z,-12.30
2022-12-15T22:39:19.457Z,-12.40
2022-12-15T22:41:47.522Z,-12.40
2022-12-15T22:44:17.120Z,-12.50
2022-12-15T22:46:47.172Z,-12.50
2022-12-15T22:49:17.503Z,-12.50
2022-12-15T22:51:45.043Z,-12.60
2022-12-15T22:54:24.340Z,-12.60
2022-12-15T22:56:55.548Z,-12.60
2022-12-15T22:59:51.432Z,-12.60
2022-12-15T23:02:18.599Z,-12.60
2022-12-15T23:04:45.827Z,-12.60
2022-12-15T23:07:12.802Z,-12.60
2022-12-15T23:09:39.988Z,-12.60
2022-12-15T23:12:07.028Z,-12.60
2022-12-15T23:14:53.125Z,-12.60
2022-12-15T23:17:20.374Z,-12.50
2022-12-15T23:19:47.559Z,-12.50
2022-12-15T23:22:14.861Z,-12.40
2022-12-15T23:24:41.863Z,-12.40
2022-12-15T23:27:11.879Z,-12.40
2022-12-15T23:29:38.921Z,-12.40
2022-12-15T23:32:06.089Z,-12.30
2022-12-15T23:34:33.273Z,-12.30
2022-12-15T23:37:01.218Z,-12.20
2022-12-15T23:39:28.379Z,-12.10
2022-12-15T23:41:55.164Z,-12.00
2022-12-15T23:44:22.437Z,-12.00
2022-12-15T23:46:49.377Z,-12.00
2022-12-15T23:49:17.387Z,-12.00
2022-12-15T23:51:44.246Z,-12.00
2022-12-15T23:54:11.576Z,-12.00
2022-12-15T23:56:40.499Z,-12.00
2022-12-15T23:59:07.710Z,-12.10
